Accueil
METAR-TAF:

METAR-TAF

Aéroports :

Grande Canarie, Espagne

Aéroport de Gran Canaria

latitude: 27-56N, longitude: 015-23W, altitude: 23 m

Observation

Le bulletin a été fait il y a 37 minutes, à 03:00 UTC
Vent 10 kt de nord
Température 21°C
Humidité 64%
Pression 1016 hPa
Visibilité 10 km ou plus
Quelques nuages à une hauteur de 3500 ft

METAR: GCLP 260300Z 35010KT 9999 FEW035 21/14 Q1016 NOSIG

Heure: 04:37 (03:37 UTC)

Prévision

Le bulletin a été fait il y a 1 heure et 37 minutes, à 02:00 UTC
Prévision valable du 26 à 03 UTC au 27 à 03 UTC
Vent 15 kt de nord
Visibilité 10 km ou plus
Nuages épars à une hauteur de 3500 ft

TAF: GCLP 260200Z 2603/2703 01015KT 9999 SCT035 TX26/2613Z TN20/2606Z

Observations et prévisions météorologiques de plus de 4000 aéroports (messages METAR et TAF).

Les stations disponibles sont représentées par des disques jaunes et rouges sur la carte.

Passer la souris dessus pour voir le nom de la station.

Cliquer dessus pour voir les observations et prévisions météorologiques.

Pour changer de carte: cliquez sur les boutons verts avec une croix noire pour zoomer, sur le bouton vert avec un tiret pour effectuer un zoom arrière, ou sur les flèches vertes pour les cartes adjacentes.


METAR-TAF: